createdAt,value
2023-02-09T00:03:41.423Z,-0.44
2023-02-09T00:08:43.089Z,-0.47
2023-02-09T00:13:44.519Z,-0.47
2023-02-09T00:18:45.858Z,-0.49
2023-02-09T00:23:47.182Z,-0.52
2023-02-09T00:28:48.552Z,-0.54
2023-02-09T00:33:49.906Z,-0.62
2023-02-09T00:38:51.248Z,-0.66
2023-02-09T00:43:52.572Z,-0.76
2023-02-09T00:48:53.968Z,-0.80
2023-02-09T00:53:55.507Z,-0.84
2023-02-09T00:58:57.107Z,-0.90
2023-02-09T01:03:58.549Z,-0.73
2023-02-09T01:09:00.539Z,-0.68
2023-02-09T01:14:04.229Z,-0.69
2023-02-09T01:19:05.628Z,-0.83
2023-02-09T01:24:07.814Z,-0.91
2023-02-09T01:29:12.902Z,-0.88
2023-02-09T01:34:17.451Z,-1.03
2023-02-09T01:39:18.812Z,-0.95
2023-02-09T01:44:20.080Z,-0.94
2023-02-09T01:49:27.665Z,-1.03
2023-02-09T01:54:34.514Z,-1.12
2023-02-09T01:59:40.018Z,-1.15
2023-02-09T02:04:44.333Z,-1.14
2023-02-09T02:09:46.216Z,-1.12
2023-02-09T02:14:47.644Z,-1.13
2023-02-09T02:20:05.530Z,-1.12
2023-02-09T02:25:32.896Z,-1.15
2023-02-09T02:30:38.742Z,-1.19
2023-02-09T02:35:58.623Z,-1.31
2023-02-09T02:41:18.803Z,-1.31
2023-02-09T02:46:30.711Z,-1.32
2023-02-09T02:51:37.910Z,-1.39
2023-02-09T02:56:43.059Z,-1.41
2023-02-09T03:01:55.226Z,-1.42
2023-02-09T03:06:56.586Z,-1.48
2023-02-09T03:12:20.544Z,-1.53
2023-02-09T03:17:43.391Z,-1.61
2023-02-09T03:22:56.274Z,-1.69
2023-02-09T03:28:12.181Z,-1.70
2023-02-09T03:33:22.278Z,-1.71
2023-02-09T03:38:24.842Z,-1.82
2023-02-09T03:43:46.333Z,-1.85
2023-02-09T03:48:47.876Z,-1.85
2023-02-09T03:53:49.308Z,-1.92
2023-02-09T03:58:51.191Z,-1.83
2023-02-09T04:03:52.551Z,-1.85
2023-02-09T04:08:53.937Z,-1.84
2023-02-09T04:13:55.391Z,-1.87
2023-02-09T04:18:57.141Z,-1.93
2023-02-09T04:23:58.623Z,-1.92
2023-02-09T04:29:00.048Z,-1.85
2023-02-09T04:34:01.451Z,-1.85
2023-02-09T04:39:03.300Z,-1.89
2023-02-09T04:44:04.670Z,-2.04
2023-02-09T04:49:06.005Z,-2.04
2023-02-09T04:54:07.532Z,-2.03
2023-02-09T04:59:28.320Z,-2.08
2023-02-09T05:04:30.590Z,-2.14
2023-02-09T05:09:32.051Z,-2.25
2023-02-09T05:14:33.476Z,-2.30
2023-02-09T05:19:34.818Z,-2.25
2023-02-09T05:24:36.150Z,-2.24
2023-02-09T05:29:37.485Z,-2.28
2023-02-09T05:34:38.888Z,-2.26
2023-02-09T05:39:40.333Z,-2.46
2023-02-09T05:44:50.122Z,-2.40
2023-02-09T05:49:52.478Z,-2.34
2023-02-09T05:54:53.824Z,-2.31
2023-02-09T05:59:55.258Z,-2.37
2023-02-09T06:04:56.812Z,-2.35
2023-02-09T06:09:58.438Z,-2.36
2023-02-09T06:14:59.865Z,-2.35
2023-02-09T06:20:01.375Z,-2.40
2023-02-09T06:25:03.480Z,-2.47
2023-02-09T06:30:05.613Z,-2.38
2023-02-09T06:35:07.069Z,-2.30
2023-02-09T06:40:08.659Z,-2.30
2023-02-09T06:45:14.923Z,-2.33
2023-02-09T06:50:17.854Z,-2.29
2023-02-09T06:55:19.320Z,-2.21
2023-02-09T07:00:21.791Z,-2.28
2023-02-09T07:05:23.180Z,-2.29
2023-02-09T07:10:24.631Z,-2.19
2023-02-09T07:15:26.087Z,-2.15
2023-02-09T07:20:27.567Z,-2.11
2023-02-09T07:25:28.948Z,-2.14
2023-02-09T07:30:30.379Z,-2.07
2023-02-09T07:35:31.877Z,-1.97
2023-02-09T07:40:33.218Z,-1.91
2023-02-09T07:45:34.550Z,-1.83
2023-02-09T07:50:35.922Z,-1.66
2023-02-09T07:55:39.768Z,-1.55
2023-02-09T08:00:41.081Z,-1.43
2023-02-09T08:05:56.867Z,-1.32
2023-02-09T08:11:00.923Z,-1.13
2023-02-09T08:16:05.502Z,-0.97
2023-02-09T08:21:09.693Z,-0.79
2023-02-09T08:26:13.198Z,-0.65
2023-02-09T08:31:17.409Z,-0.50
2023-02-09T08:36:20.355Z,-0.36
2023-02-09T08:41:21.959Z,-0.20
2023-02-09T08:46:23.451Z,-0.01
2023-02-09T08:51:24.959Z,0.19
2023-02-09T08:56:26.327Z,0.37
2023-02-09T09:01:27.718Z,0.51
2023-02-09T09:06:29.244Z,0.59
2023-02-09T09:11:30.754Z,0.73
2023-02-09T09:16:32.191Z,0.88
2023-02-09T09:21:33.926Z,0.98
2023-02-09T09:26:35.671Z,1.14
2023-02-09T09:31:37.974Z,1.26
2023-02-09T09:36:39.633Z,1.42
2023-02-09T09:41:41.095Z,1.55
2023-02-09T09:46:47.494Z,1.69
2023-02-09T09:51:55.680Z,1.64
2023-02-09T09:56:57.391Z,1.82
2023-02-09T10:02:03.497Z,1.87
2023-02-09T10:07:16.398Z,1.87
2023-02-09T10:12:30.033Z,2.04
2023-02-09T10:17:31.398Z,2.25
2023-02-09T10:22:32.753Z,2.30
2023-02-09T10:27:34.066Z,2.42
2023-02-09T10:32:43.295Z,2.58
2023-02-09T10:37:44.669Z,2.76
2023-02-09T10:43:00.799Z,2.91
2023-02-09T10:48:18.876Z,3.09
2023-02-09T10:53:25.020Z,3.17
2023-02-09T10:58:33.468Z,3.26
2023-02-09T11:03:36.257Z,3.45
2023-02-09T11:08:43.323Z,3.68
2023-02-09T11:13:44.708Z,3.78
2023-02-09T11:18:57.060Z,3.47
2023-02-09T11:24:07.150Z,3.40
2023-02-09T11:29:35.025Z,3.47
2023-02-09T11:35:10.556Z,3.49
2023-02-09T11:40:33.236Z,3.95
2023-02-09T11:45:52.168Z,4.17
2023-02-09T11:51:07.939Z,4.28
2023-02-09T11:56:13.418Z,4.34
2023-02-09T12:01:39.774Z,4.42
2023-02-09T12:06:54.519Z,4.51
2023-02-09T12:12:10.288Z,4.71
2023-02-09T12:17:18.823Z,4.90
2023-02-09T12:22:35.479Z,4.83
2023-02-09T12:27:38.919Z,4.95
2023-02-09T12:32:43.892Z,5.19
2023-02-09T12:38:13.299Z,5.16
2023-02-09T12:43:27.004Z,5.23
2023-02-09T12:48:28.471Z,5.30
2023-02-09T12:53:40.675Z,5.33
2023-02-09T12:58:45.307Z,5.45
2023-02-09T13:04:05.669Z,5.52
2023-02-09T13:09:15.219Z,5.52
2023-02-09T13:14:18.626Z,5.66
2023-02-09T13:19:50.697Z,5.43
2023-02-09T13:25:00.394Z,5.61
2023-02-09T13:30:01.971Z,5.60
2023-02-09T13:35:24.283Z,5.77
2023-02-09T13:40:29.610Z,5.97
2023-02-09T13:45:31.822Z,6.12
2023-02-09T13:50:33.400Z,6.24
2023-02-09T13:55:37.740Z,6.37
2023-02-09T14:00:48.118Z,6.55
2023-02-09T14:05:59.634Z,6.63
2023-02-09T14:11:41.063Z,6.79
2023-02-09T14:16:53.160Z,6.85
2023-02-09T14:21:55.372Z,6.74
2023-02-09T14:27:04.889Z,6.79
2023-02-09T14:32:35.724Z,6.59
2023-02-09T14:37:37.156Z,6.68
2023-02-09T14:42:56.919Z,6.61
2023-02-09T14:47:58.448Z,6.54
2023-02-09T14:53:06.758Z,6.44
2023-02-09T14:58:23.269Z,6.32
2023-02-09T15:03:25.017Z,6.27
2023-02-09T15:08:30.270Z,6.21
2023-02-09T15:13:32.949Z,6.44
2023-02-09T15:18:36.081Z,6.29
2023-02-09T15:23:37.450Z,6.14
2023-02-09T15:28:39.355Z,6.21
2023-02-09T15:33:40.886Z,6.04
2023-02-09T15:38:42.336Z,5.90
2023-02-09T15:44:02.407Z,5.83
2023-02-09T15:49:05.402Z,5.76
2023-02-09T15:54:17.900Z,5.67
2023-02-09T15:59:22.028Z,5.52
2023-02-09T16:04:23.445Z,5.58
2023-02-09T16:09:27.680Z,5.40
2023-02-09T16:14:29.104Z,5.27
2023-02-09T16:19:30.719Z,5.23
2023-02-09T16:24:45.016Z,4.92
2023-02-09T16:29:46.360Z,4.79
2023-02-09T16:34:48.369Z,4.61
2023-02-09T16:39:49.796Z,4.51
2023-02-09T16:44:51.754Z,4.41
2023-02-09T16:50:02.785Z,4.50
2023-02-09T16:55:06.201Z,4.42
2023-02-09T17:00:08.271Z,4.41
2023-02-09T17:05:37.023Z,4.30
2023-02-09T17:10:38.377Z,4.11
2023-02-09T17:15:44.150Z,4.10
2023-02-09T17:20:50.644Z,4.11
2023-02-09T17:25:55.052Z,3.97
2023-02-09T17:31:00.145Z,3.87
2023-02-09T17:41:31.268Z,3.77
2023-02-09T17:46:32.633Z,3.70
2023-02-09T17:51:40.290Z,3.62
2023-02-09T17:56:42.453Z,3.53
2023-02-09T18:01:46.456Z,3.46
2023-02-09T18:06:47.828Z,3.37
2023-02-09T18:11:55.432Z,3.31
2023-02-09T18:16:56.998Z,3.25
2023-02-09T18:22:01.200Z,3.22
2023-02-09T18:27:02.791Z,3.15
2023-02-09T18:32:04.509Z,3.14
2023-02-09T18:37:06.752Z,3.07
2023-02-09T18:42:12.724Z,3.01
2023-02-09T18:47:14.214Z,3.00
2023-02-09T18:52:20.789Z,2.97
2023-02-09T18:57:22.138Z,2.94
2023-02-09T19:02:24.203Z,2.87
2023-02-09T19:07:25.847Z,2.85
2023-02-09T19:12:28.357Z,2.84
2023-02-09T19:17:29.909Z,2.80
2023-02-09T19:22:32.143Z,2.75
2023-02-09T19:27:33.615Z,2.70
2023-02-09T19:32:35.027Z,2.66
2023-02-09T19:37:37.340Z,2.62
2023-02-09T19:42:38.721Z,2.55
2023-02-09T19:47:40.131Z,2.52
2023-02-09T19:52:44.030Z,2.47
2023-02-09T19:57:45.444Z,2.39
2023-02-09T20:02:48.088Z,2.36
2023-02-09T20:07:49.775Z,2.32
2023-02-09T20:12:51.294Z,2.25
2023-02-09T20:17:52.616Z,2.26
2023-02-09T20:22:54.850Z,2.18
2023-02-09T20:27:56.229Z,2.11
2023-02-09T20:32:57.576Z,2.05
2023-02-09T20:37:58.912Z,1.97
2023-02-09T20:43:18.944Z,1.89
2023-02-09T20:48:20.288Z,1.81
2023-02-09T20:53:22.486Z,1.76
2023-02-09T20:58:24.856Z,1.70
2023-02-09T21:03:26.200Z,1.63
2023-02-09T21:08:27.570Z,1.58
2023-02-09T21:13:28.987Z,1.51
2023-02-09T21:18:30.328Z,1.36
2023-02-09T21:23:31.842Z,1.17
2023-02-09T21:28:33.266Z,1.02
2023-02-09T21:33:35.485Z,1.01
2023-02-09T21:38:41.401Z,1.01
2023-02-09T21:43:43.238Z,1.00
2023-02-09T21:48:44.804Z,0.98
2023-02-09T21:53:48.360Z,0.92
2023-02-09T21:58:49.723Z,0.91
2023-02-09T22:03:57.119Z,0.88
2023-02-09T22:09:02.397Z,0.82
2023-02-09T22:14:04.352Z,0.77
2023-02-09T22:19:05.751Z,0.73
2023-02-09T22:24:07.354Z,0.66
2023-02-09T22:29:10.188Z,0.63
2023-02-09T22:34:11.625Z,0.58
2023-02-09T22:39:13.054Z,0.50
2023-02-09T22:44:16.010Z,0.48
2023-02-09T22:49:19.682Z,0.40
2023-02-09T22:54:21.365Z,0.37
2023-02-09T22:59:22.737Z,0.31
2023-02-09T23:04:24.168Z,0.31
2023-02-09T23:09:25.628Z,0.29
2023-02-09T23:14:27.244Z,0.26
2023-02-09T23:19:28.636Z,0.22
2023-02-09T23:24:29.996Z,0.16
2023-02-09T23:29:31.386Z,0.13
2023-02-09T23:34:33.488Z,0.10
2023-02-09T23:39:35.961Z,0.08
2023-02-09T23:44:37.337Z,0.07
2023-02-09T23:49:38.719Z,0.05
2023-02-09T23:54:40.070Z,0.01
2023-02-09T23:59:42.532Z,-0.14
